Time;durP1;ratioP1;P1;durP2;ratioP2;P2;SDS_P1;SDS_P2;PMS_P1;PMS_P2;Temp;Humidity;BMP_temperature;BMP_pressure;BME280_temperature;BME280_humidity;BME280_pressure;Samples;Min_cycle;Max_cycle;Signal;HPM_P1;HPM_P2
2022/10/28 00:01:33;;;;;;;3.70;2.10;;;12.60;98.00;;;;;;4974753;28;20472;-68
2022/10/28 00:04:01;;;;;;;5.60;2.27;;;12.60;98.00;;;;;;4974769;28;20466;-68
2022/10/28 00:06:33;;;;;;;2.70;1.90;;;12.60;98.00;;;;;;4974662;28;20957;-68
2022/10/28 00:09:01;;;;;;;2.27;1.93;;;12.60;98.00;;;;;;4974646;28;20482;-68
2022/10/28 00:11:31;;;;;;;3.20;2.13;;;12.80;98.00;;;;;;4974269;28;20512;-68
2022/10/28 00:14:01;;;;;;;4.20;2.10;;;12.80;98.00;;;;;;4974587;28;20468;-68
2022/10/28 00:16:32;;;;;;;5.80;2.20;;;12.70;98.00;;;;;;4974411;28;20457;-68
2022/10/28 00:19:01;;;;;;;3.37;1.87;;;12.60;98.00;;;;;;4974348;28;20975;-68
2022/10/28 00:21:30;;;;;;;2.37;1.70;;;12.60;98.00;;;;;;4974178;28;20981;-68
2022/10/28 00:23:57;;;;;;;2.23;1.77;;;12.70;98.00;;;;;;4974701;28;20467;-68
2022/10/28 00:26:26;;;;;;;4.50;2.80;;;12.60;98.00;;;;;;4974220;28;20855;-68
2022/10/28 00:28:55;;;;;;;3.30;1.97;;;12.70;98.00;;;;;;4974319;28;20460;-68
2022/10/28 00:31:25;;;;;;;4.40;2.70;;;12.70;98.00;;;;;;4972786;28;21082;-68
2022/10/28 00:33:53;;;;;;;1.80;1.70;;;12.60;98.00;;;;;;4974073;28;20471;-68
2022/10/28 00:36:22;;;;;;;6.00;2.20;;;12.60;98.00;;;;;;4973948;28;20480;-68
2022/10/28 00:38:51;;;;;;;5.33;2.20;;;12.70;98.00;;;;;;4974276;28;20534;-68
2022/10/28 00:41:20;;;;;;;3.00;2.20;;;12.80;98.00;;;;;;4974148;28;20488;-68
2022/10/28 00:43:49;;;;;;;5.33;2.00;;;12.70;98.00;;;;;;4957084;28;20461;-68
2022/10/28 00:46:32;;;;;;;2.20;1.77;;;12.80;98.00;;;;;;4973891;28;20461;-68
2022/10/28 00:49:02;;;;;;;2.93;2.10;;;12.70;98.00;;;;;;4973990;28;20472;-68
2022/10/28 00:51:34;;;;;;;3.47;2.17;;;12.80;98.00;;;;;;4972428;28;20483;-68
2022/10/28 00:54:02;;;;;;;3.00;1.93;;;13.00;98.00;;;;;;4972639;28;20474;-68
2022/10/28 00:56:37;;;;;;;3.23;2.23;;;13.00;98.00;;;;;;4973518;28;20468;-68
2022/10/28 00:59:09;;;;;;;3.97;2.07;;;12.90;98.00;;;;;;4973924;28;20881;-68
2022/10/28 01:01:38;;;;;;;4.00;2.60;;;12.80;98.00;;;;;;4972649;28;20456;-68
2022/10/28 01:04:05;;;;;;;6.63;2.00;;;12.70;98.00;;;;;;4973694;28;20460;-68
2022/10/28 01:06:32;;;;;;;5.17;2.33;;;12.60;98.00;;;;;;4973315;28;20468;-68
2022/10/28 01:08:59;;;;;;;4.50;2.33;;;12.50;98.00;;;;;;4972057;28;20467;-68
2022/10/28 01:11:45;;;;;;;5.70;2.43;;;12.50;98.00;;;;;;4971959;28;20484;-68
2022/10/28 01:14:36;;;;;;;4.27;2.23;;;12.40;98.00;;;;;;4973346;28;20502;-68
2022/10/28 01:17:24;;;;;;;3.43;2.40;;;12.50;98.00;;;;;;4972027;28;20471;-68
2022/10/28 01:20:27;;;;;;;3.13;1.90;;;12.40;98.00;;;;;;4973630;28;20464;-68
2022/10/28 01:23:01;;;;;;;4.40;2.90;;;12.40;98.00;;;;;;4972078;28;20468;-68
2022/10/28 01:25:58;;;;;;;6.23;2.23;;;12.40;98.00;;;;;;4973081;28;21007;-68
2022/10/28 01:29:02;;;;;;;2.47;2.00;;;12.30;98.00;;;;;;4972033;28;20458;-68
2022/10/28 01:31:43;;;;;;;1.87;1.77;;;12.20;98.00;;;;;;4939201;28;20904;-68
2022/10/28 01:34:21;;;;;;;3.20;1.83;;;12.10;98.00;;;;;;4971570;28;21019;-68
2022/10/28 01:36:57;;;;;;;3.20;2.10;;;12.20;98.00;;;;;;4973265;28;20466;-68
2022/10/28 01:39:32;;;;;;;3.00;2.10;;;12.20;98.00;;;;;;4973242;28;20465;-68
2022/10/28 01:42:08;;;;;;;2.60;1.63;;;12.10;98.00;;;;;;4973337;28;20469;-68
2022/10/28 01:44:43;;;;;;;4.07;1.93;;;12.10;98.00;;;;;;4973084;28;20469;-68
2022/10/28 01:47:16;;;;;;;3.57;2.50;;;12.10;98.00;;;;;;4972915;28;20469;-68
2022/10/28 01:49:49;;;;;;;4.83;1.80;;;12.10;98.00;;;;;;4973025;28;20470;-68
2022/10/28 01:52:21;;;;;;;3.37;2.10;;;12.10;98.00;;;;;;4971399;28;20495;-68
2022/10/28 01:54:53;;;;;;;3.33;2.10;;;12.20;98.00;;;;;;4972708;28;20567;-68
2022/10/28 01:57:25;;;;;;;3.20;2.30;;;12.20;98.00;;;;;;4971642;28;20476;-68
2022/10/28 01:59:53;;;;;;;4.17;2.13;;;12.10;98.00;;;;;;4972934;28;20459;-68
2022/10/28 02:02:22;;;;;;;2.73;2.07;;;12.00;98.00;;;;;;4972558;28;20449;-68
2022/10/28 02:04:49;;;;;;;3.40;2.27;;;12.10;98.00;;;;;;4972713;28;20466;-68
2022/10/28 02:07:17;;;;;;;2.33;1.97;;;12.10;98.00;;;;;;4971233;28;20469;-68
2022/10/28 02:09:58;;;;;;;4.50;2.10;;;12.20;98.00;;;;;;4972467;28;20962;-68
2022/10/28 02:12:29;;;;;;;3.17;1.90;;;12.20;98.00;;;;;;4971805;28;21004;-68
2022/10/28 02:15:18;;;;;;;3.57;2.23;;;12.10;98.00;;;;;;4979025;28;20997;-68
2022/10/28 02:17:57;;;;;;;2.63;1.87;;;12.10;98.00;;;;;;4979018;28;20472;-68
2022/10/28 02:20:32;;;;;;;2.13;1.60;;;11.80;98.00;;;;;;4977770;28;20539;-68
2022/10/28 02:23:11;;;;;;;5.87;2.00;;;11.80;98.00;;;;;;4978849;28;20453;-68
2022/10/28 02:25:43;;;;;;;7.90;2.17;;;11.80;98.00;;;;;;4979327;28;20857;-68
2022/10/28 02:28:14;;;;;;;5.10;2.53;;;11.90;98.00;;;;;;4978844;28;20471;-68
2022/10/28 02:30:46;;;;;;;2.83;2.10;;;12.00;98.00;;;;;;4978934;28;20483;-68
2022/10/28 02:33:20;;;;;;;3.60;2.10;;;11.80;98.00;;;;;;4978707;28;20593;-68
2022/10/28 02:35:51;;;;;;;4.20;1.90;;;11.70;98.00;;;;;;4977681;28;20464;-68
2022/10/28 02:38:22;;;;;;;3.93;2.00;;;11.70;98.00;;;;;;4977637;28;20458;-68
2022/10/28 02:40:54;;;;;;;2.50;2.07;;;11.70;98.00;;;;;;4978930;28;20464;-68
2022/10/28 02:43:24;;;;;;;5.10;2.47;;;11.80;98.00;;;;;;4978820;28;20469;-68
2022/10/28 02:45:55;;;;;;;4.07;2.03;;;11.60;98.00;;;;;;4978952;28;20948;-68
2022/10/28 02:48:28;;;;;;;3.57;2.40;;;11.60;98.00;;;;;;4978767;28;20458;-68
2022/10/28 02:51:00;;;;;;;6.50;1.80;;;11.60;98.00;;;;;;4978567;28;20461;-68
2022/10/28 02:53:31;;;;;;;3.80;2.50;;;11.80;98.00;;;;;;4977317;28;20845;-68
2022/10/28 02:56:02;;;;;;;5.10;2.20;;;11.80;98.00;;;;;;4978678;28;20503;-68
2022/10/28 02:58:29;;;;;;;4.70;2.23;;;11.80;98.00;;;;;;4977360;28;20984;-68
2022/10/28 03:00:56;;;;;;;2.63;1.80;;;11.90;98.00;;;;;;4978644;28;20465;-68
2022/10/28 03:03:25;;;;;;;4.30;2.30;;;11.90;98.00;;;;;;4978645;28;20953;-68
2022/10/28 03:05:52;;;;;;;3.30;2.47;;;11.90;98.00;;;;;;4978511;28;20457;-68
2022/10/28 03:08:19;;;;;;;2.00;1.73;;;11.80;98.00;;;;;;4978380;28;20457;-68
2022/10/28 03:10:46;;;;;;;3.03;2.03;;;11.60;98.00;;;;;;4977172;28;20538;-68
2022/10/28 03:13:16;;;;;;;2.90;2.03;;;11.50;98.00;;;;;;4978347;28;20490;-68
2022/10/28 03:15:43;;;;;;;3.73;2.00;;;11.50;98.00;;;;;;4961693;28;20970;-68
2022/10/28 03:18:10;;;;;;;6.00;2.20;;;11.50;98.00;;;;;;4977171;28;20468;-68
2022/10/28 03:20:39;;;;;;;4.00;2.70;;;11.50;98.00;;;;;;4978353;28;20465;-68
2022/10/28 03:23:06;;;;;;;3.50;2.20;;;11.60;98.00;;;;;;4978494;28;20468;-68
2022/10/28 03:25:33;;;;;;;3.10;2.37;;;11.60;98.00;;;;;;4973996;28;20457;-68
2022/10/28 03:28:00;;;;;;;2.80;2.00;;;11.70;98.00;;;;;;4975180;28;20831;-68
2022/10/28 03:30:27;;;;;;;3.37;2.27;;;11.60;98.00;;;;;;4975146;28;20478;-68
2022/10/28 03:32:54;;;;;;;3.13;2.10;;;11.50;98.00;;;;;;4975030;28;20532;-68
2022/10/28 03:35:21;;;;;;;1.93;1.50;;;11.60;98.00;;;;;;4975129;28;20461;-68
2022/10/28 03:37:50;;;;;;;5.30;2.40;;;11.60;98.00;;;;;;4975435;28;20463;-68
2022/10/28 03:40:17;;;;;;;4.83;2.33;;;11.60;98.00;;;;;;4975350;28;20470;-68
2022/10/28 03:42:44;;;;;;;6.23;2.20;;;11.60;98.00;;;;;;4974507;28;20458;-68
2022/10/28 03:45:11;;;;;;;4.03;2.40;;;11.70;98.00;;;;;;4974056;28;20562;-68
2022/10/28 03:47:39;;;;;;;1.70;1.60;;;11.60;98.00;;;;;;4975325;28;20527;-68
2022/10/28 03:50:07;;;;;;;6.70;2.20;;;11.60;98.00;;;;;;4973845;28;20453;-68
2022/10/28 03:52:34;;;;;;;2.27;1.60;;;11.60;98.00;;;;;;4974744;28;20486;-68
2022/10/28 03:55:03;;;;;;;4.97;1.87;;;11.60;98.00;;;;;;4974953;28;20523;-68
2022/10/28 03:57:31;;;;;;;2.50;1.90;;;11.50;98.00;;;;;;4973448;28;20958;-68
2022/10/28 03:59:58;;;;;;;6.97;1.77;;;11.70;98.00;;;;;;4974771;28;20894;-68
2022/10/28 04:02:25;;;;;;;2.87;1.67;;;11.80;98.00;;;;;;4974542;28;20524;-68
2022/10/28 04:04:53;;;;;;;3.07;2.20;;;11.70;98.00;;;;;;4974801;28;20884;-68
2022/10/28 04:07:20;;;;;;;4.17;2.30;;;11.70;98.00;;;;;;4973188;28;20455;-68
2022/10/28 04:09:50;;;;;;;3.30;1.80;;;11.70;98.00;;;;;;4974606;28;20458;-68
2022/10/28 04:12:19;;;;;;;4.80;2.03;;;11.60;98.00;;;;;;4974417;28;20656;-68
2022/10/28 04:14:46;;;;;;;3.07;1.80;;;11.70;98.00;;;;;;4974543;28;20458;-68
2022/10/28 04:17:14;;;;;;;3.40;1.90;;;11.60;98.00;;;;;;4974402;28;20470;-68
2022/10/28 04:19:41;;;;;;;2.30;1.93;;;11.60;98.00;;;;;;4972932;28;20455;-68
2022/10/28 04:22:08;;;;;;;3.43;1.90;;;11.70;98.00;;;;;;4974258;28;20461;-68
2022/10/28 04:24:35;;;;;;;3.47;2.23;;;12.00;98.00;;;;;;4974159;28;20490;-68
2022/10/28 04:27:05;;;;;;;1.90;1.70;;;12.00;98.00;;;;;;4974394;28;20892;-68
2022/10/28 04:29:35;;;;;;;3.63;2.23;;;12.10;98.00;;;;;;4974254;28;20828;-68
2022/10/28 04:32:02;;;;;;;3.80;2.17;;;11.90;98.00;;;;;;4973046;28;20459;-68
2022/10/28 04:34:29;;;;;;;3.83;2.40;;;11.90;98.00;;;;;;4973882;28;20495;-68
2022/10/28 04:36:56;;;;;;;2.23;1.50;;;11.90;98.00;;;;;;4972725;28;20460;-68
2022/10/28 04:39:23;;;;;;;5.63;3.07;;;11.90;98.00;;;;;;4974063;28;20458;-68
2022/10/28 04:41:50;;;;;;;3.60;2.20;;;12.00;98.00;;;;;;4972693;28;20834;-68
2022/10/28 04:44:20;;;;;;;3.70;2.20;;;12.30;98.00;;;;;;4972810;28;20495;-68
2022/10/28 04:46:49;;;;;;;3.33;2.60;;;12.50;98.00;;;;;;4973882;28;20461;-68
2022/10/28 04:49:16;;;;;;;4.70;2.40;;;12.60;98.00;;;;;;4973893;28;20464;-68
2022/10/28 04:51:43;;;;;;;3.33;2.30;;;12.50;98.00;;;;;;4973847;28;20462;-68
2022/10/28 04:54:10;;;;;;;3.73;2.27;;;12.40;98.00;;;;;;4972395;28;20491;-68
2022/10/28 04:56:37;;;;;;;2.50;1.87;;;12.30;98.00;;;;;;4973602;28;20465;-68
2022/10/28 04:59:04;;;;;;;5.43;2.20;;;12.20;98.00;;;;;;4956482;28;20526;-68
2022/10/28 05:01:31;;;;;;;2.57;2.23;;;12.20;98.00;;;;;;4973796;28;20493;-68
2022/10/28 05:04:00;;;;;;;3.70;2.40;;;12.10;98.00;;;;;;4972316;28;20459;-68
2022/10/28 05:06:27;;;;;;;6.70;1.97;;;12.10;98.00;;;;;;4973392;28;20462;-68
2022/10/28 05:08:54;;;;;;;9.33;2.60;;;12.10;98.00;;;;;;4973514;28;20468;-68
2022/10/28 05:11:21;;;;;;;5.73;3.03;;;12.10;98.00;;;;;;4973341;28;20876;-68
2022/10/28 05:13:48;;;;;;;3.13;2.33;;;12.10;98.00;;;;;;4973177;28;20580;-68
2022/10/28 05:16:15;;;;;;;3.83;2.40;;;12.20;98.00;;;;;;4973708;28;20461;-68
2022/10/28 05:18:44;;;;;;;7.10;1.90;;;12.30;98.00;;;;;;4973079;28;20562;-68
2022/10/28 05:21:13;;;;;;;3.50;2.37;;;12.50;98.00;;;;;;4973172;28;20467;-68
2022/10/28 05:23:40;;;;;;;3.83;2.30;;;12.50;98.00;;;;;;4973117;28;21023;-68
2022/10/28 05:26:10;;;;;;;3.00;2.00;;;12.60;98.00;;;;;;4973109;28;20458;-68
2022/10/28 05:28:37;;;;;;;3.03;2.20;;;12.60;98.00;;;;;;4971952;28;20458;-68
2022/10/28 05:31:11;;;;;;;2.60;2.00;;;12.60;98.00;;;;;;4973251;28;20476;-68
2022/10/28 05:33:38;;;;;;;4.13;2.40;;;12.40;98.00;;;;;;4972715;28;20490;-68
2022/10/28 05:36:08;;;;;;;4.63;2.40;;;12.30;98.00;;;;;;4973195;28;20561;-68
2022/10/28 05:38:36;;;;;;;7.47;2.17;;;12.20;98.00;;;;;;4972964;28;20476;-68
2022/10/28 05:41:03;;;;;;;2.73;2.27;;;12.20;98.00;;;;;;4973251;28;20465;-68
2022/10/28 05:43:30;;;;;;;5.33;2.93;;;12.30;98.00;;;;;;4973311;28;20457;-68
2022/10/28 05:45:58;;;;;;;9.93;2.60;;;12.20;98.00;;;;;;4972822;28;20454;-68
2022/10/28 05:48:25;;;;;;;3.33;2.03;;;12.20;98.00;;;;;;4970993;28;20497;-68
2022/10/28 05:50:52;;;;;;;4.43;2.37;;;12.20;98.00;;;;;;4972717;28;20456;-68
2022/10/28 05:53:19;;;;;;;3.97;2.47;;;12.20;98.00;;;;;;4972561;28;20514;-68
2022/10/28 05:55:48;;;;;;;3.47;2.40;;;12.20;98.00;;;;;;4972674;28;20467;-68
2022/10/28 05:58:15;;;;;;;2.37;1.77;;;12.30;98.00;;;;;;4972608;28;20517;-68
2022/10/28 06:00:42;;;;;;;4.97;2.57;;;12.30;98.00;;;;;;4971567;28;20468;-68
2022/10/28 06:03:12;;;;;;;2.83;2.10;;;12.40;98.00;;;;;;4971487;28;20460;-68
2022/10/28 06:05:42;;;;;;;3.57;2.00;;;12.60;98.00;;;;;;4972791;28;20465;-68
2022/10/28 06:08:10;;;;;;;5.23;2.87;;;12.50;98.00;;;;;;4971438;28;20467;-68
2022/10/28 06:10:37;;;;;;;4.60;2.43;;;12.50;98.00;;;;;;4972440;28;20459;-68
2022/10/28 06:13:05;;;;;;;3.00;2.33;;;12.50;98.00;;;;;;4971256;28;20486;-68
2022/10/28 06:15:33;;;;;;;5.27;2.70;;;12.50;98.00;;;;;;4972411;28;20529;-68
2022/10/28 06:18:00;;;;;;;4.17;2.50;;;12.30;98.00;;;;;;4971353;28;20546;-68
2022/10/28 06:20:27;;;;;;;2.97;1.90;;;12.30;98.00;;;;;;4972373;28;20456;-68
2022/10/28 06:22:55;;;;;;;3.00;2.23;;;12.10;98.00;;;;;;4972430;28;20461;-68
2022/10/28 06:25:24;;;;;;;3.30;2.10;;;12.10;98.00;;;;;;4972337;28;20960;-68
2022/10/28 06:27:54;;;;;;;5.33;2.57;;;12.20;98.00;;;;;;4972352;28;20488;-68
2022/10/28 06:30:23;;;;;;;2.70;1.93;;;12.20;98.00;;;;;;4972315;28;20471;-68
2022/10/28 06:32:50;;;;;;;5.27;2.10;;;12.20;98.00;;;;;;4972089;28;20453;-68
2022/10/28 06:35:17;;;;;;;2.80;2.00;;;12.30;98.00;;;;;;4972217;28;20526;-68
2022/10/28 06:37:44;;;;;;;5.87;2.90;;;12.30;98.00;;;;;;4972364;28;20518;-68
2022/10/28 06:40:11;;;;;;;8.87;2.77;;;12.40;98.00;;;;;;4972375;28;20450;-65
2022/10/28 06:42:38;;;;;;;5.60;2.50;;;12.40;98.00;;;;;;4972516;28;20824;-65
2022/10/28 06:45:07;;;;;;;3.53;2.37;;;12.40;98.00;;;;;;4972351;28;20456;-65
2022/10/28 06:47:36;;;;;;;7.10;2.30;;;12.40;98.00;;;;;;4972257;28;20874;-65
2022/10/28 06:50:07;;;;;;;2.60;2.37;;;12.40;98.00;;;;;;4972410;28;20455;-65
2022/10/28 06:52:34;;;;;;;2.57;2.10;;;12.30;98.00;;;;;;4972167;28;20469;-65
2022/10/28 06:55:02;;;;;;;3.20;2.33;;;12.30;98.00;;;;;;4972209;28;20489;-65
2022/10/28 06:57:30;;;;;;;3.67;2.00;;;12.30;98.00;;;;;;4972047;28;20957;-65
2022/10/28 06:59:57;;;;;;;2.80;2.33;;;12.20;98.00;;;;;;4973010;28;20800;-65
2022/10/28 07:54:36;;;;;;;5.63;3.03;;;13.10;98.00;;;;;;5149969;27;20279;-65
2022/10/28 07:57:03;;;;;;;4.40;2.50;;;13.60;98.00;;;;;;5150275;27;20967;-63
2022/10/28 07:59:30;;;;;;;9.70;3.20;;;13.70;98.00;;;;;;5149937;27;20843;-66
2022/10/28 08:01:57;;;;;;;6.53;3.13;;;13.70;98.00;;;;;;5149882;27;20463;-66
2022/10/28 08:04:24;;;;;;;4.00;2.50;;;13.80;98.00;;;;;;5149885;27;20463;-66
2022/10/28 08:06:52;;;;;;;6.00;3.20;;;13.90;98.00;;;;;;5149884;27;20450;-66
2022/10/28 08:09:19;;;;;;;3.93;2.67;;;14.00;98.00;;;;;;5131439;27;20471;-65
2022/10/28 08:11:47;;;;;;;8.80;3.87;;;14.00;98.00;;;;;;5150084;27;20762;-65
2022/10/28 08:14:15;;;;;;;5.77;2.93;;;14.00;98.00;;;;;;5149368;27;20861;-66
2022/10/28 08:16:42;;;;;;;4.10;2.60;;;13.90;98.00;;;;;;5149713;27;20505;-65
2022/10/28 08:19:11;;;;;;;7.17;2.73;;;13.90;98.00;;;;;;5149452;27;20993;-65
2022/10/28 08:21:38;;;;;;;5.30;3.33;;;13.90;98.00;;;;;;5149508;27;20937;-65
2022/10/28 08:24:05;;;;;;;4.63;3.30;;;14.00;98.00;;;;;;5149438;27;20503;-65
2022/10/28 08:26:32;;;;;;;14.43;3.30;;;14.00;98.00;;;;;;5131319;27;20455;-65
2022/10/28 08:29:01;;;;;;;5.73;3.10;;;14.10;98.00;;;;;;5149454;27;20463;-66
2022/10/28 08:31:28;;;;;;;4.23;3.00;;;14.20;98.00;;;;;;5148357;27;20509;-66
2022/10/28 08:33:58;;;;;;;7.07;3.03;;;14.30;98.00;;;;;;5149363;27;20449;-65
2022/10/28 08:36:25;;;;;;;6.33;2.97;;;14.30;98.00;;;;;;5149277;27;20455;-66
2022/10/28 08:38:52;;;;;;;4.20;2.83;;;14.30;98.00;;;;;;5131132;27;20460;-66
2022/10/28 08:41:29;;;;;;;4.07;2.20;;;14.40;98.00;;;;;;5149466;27;20451;-64
2022/10/28 08:44:15;;;;;;;5.50;3.10;;;14.40;98.00;;;;;;5148948;27;20484;-65
2022/10/28 08:46:55;;;;;;;5.00;3.07;;;14.70;98.00;;;;;;5149263;27;20934;-64
2022/10/28 08:49:23;;;;;;;7.43;2.97;;;14.80;98.00;;;;;;5149227;27;20539;-65
2022/10/28 08:51:55;;;;;;;4.00;2.90;;;14.90;98.00;;;;;;5149089;27;20448;-64
2022/10/28 08:54:27;;;;;;;8.23;3.00;;;15.00;98.00;;;;;;5141534;27;20515;-67
2022/10/28 08:56:57;;;;;;;4.37;2.63;;;15.00;98.00;;;;;;5135384;27;20795;-62
2022/10/28 08:59:32;;;;;;;4.87;2.77;;;15.10;98.00;;;;;;5135202;27;20533;-67
2022/10/28 09:02:03;;;;;;;4.80;3.00;;;15.10;98.00;;;;;;5135193;27;20846;-67
2022/10/28 09:04:38;;;;;;;3.93;2.43;;;15.00;98.00;;;;;;5116332;27;20855;-67
2022/10/28 09:07:06;;;;;;;4.50;2.60;;;15.10;98.00;;;;;;5135163;27;20458;-67
2022/10/28 09:09:33;;;;;;;7.30;2.73;;;15.20;98.00;;;;;;5134891;27;20450;-67
2022/10/28 09:12:15;;;;;;;4.87;2.90;;;15.30;98.00;;;;;;5134917;27;20516;-67
2022/10/28 09:14:59;;;;;;;4.47;2.80;;;15.30;98.00;;;;;;5135299;27;20861;-67
2022/10/28 09:17:34;;;;;;;5.53;3.00;;;15.30;98.00;;;;;;5117183;27;20462;-66
2022/10/28 09:20:12;;;;;;;3.83;2.43;;;15.40;98.00;;;;;;5134249;27;20453;-66
2022/10/28 09:22:47;;;;;;;3.10;2.13;;;15.40;98.00;;;;;;5134761;27;20880;-67
2022/10/28 09:25:22;;;;;;;4.97;2.63;;;15.50;98.00;;;;;;5134415;27;20453;-66
2022/10/28 09:28:12;;;;;;;5.17;2.97;;;15.60;98.00;;;;;;5115835;27;20847;-66
2022/10/28 09:30:50;;;;;;;5.13;3.50;;;15.70;98.00;;;;;;5117484;27;20652;-66
2022/10/28 09:33:31;;;;;;;6.93;2.80;;;15.90;98.00;;;;;;5134499;27;20454;-67
2022/10/28 09:35:59;;;;;;;4.37;2.40;;;16.00;98.00;;;;;;5134946;27;20454;-66
2022/10/28 09:38:28;;;;;;;3.67;2.87;;;16.00;98.00;;;;;;5134564;27;20458;-66
2022/10/28 09:41:01;;;;;;;6.53;3.30;;;16.10;98.00;;;;;;5115976;27;20847;-67
2022/10/28 09:43:31;;;;;;;4.73;2.60;;;16.20;98.00;;;;;;5134191;27;21014;-66
2022/10/28 09:46:04;;;;;;;10.93;3.20;;;16.20;98.00;;;;;;5134249;27;20461;-67
2022/10/28 09:48:36;;;;;;;4.10;2.47;;;16.20;98.00;;;;;;5134227;27;20576;-67
2022/10/28 09:51:04;;;;;;;2.27;1.80;;;16.30;98.00;;;;;;5134245;27;20458;-66
2022/10/28 09:53:40;;;;;;;2.43;1.60;;;16.30;98.00;;;;;;5134105;27;20462;-64
2022/10/28 09:56:08;;;;;;;3.90;2.37;;;16.80;98.00;;;;;;5132061;27;20838;-64
2022/10/28 09:58:36;;;;;;;3.70;2.40;;;17.30;98.00;;;;;;5133882;27;20454;-65
2022/10/28 10:01:05;;;;;;;5.00;2.70;;;17.70;98.00;;;;;;5115944;27;20454;-64
2022/10/28 10:03:32;;;;;;;4.70;2.47;;;18.00;98.00;;;;;;5133762;27;20478;-64
2022/10/28 10:06:09;;;;;;;7.30;3.00;;;18.20;98.00;;;;;;5132753;27;20446;-64
2022/10/28 10:08:36;;;;;;;4.07;2.60;;;18.40;98.00;;;;;;5115567;27;20460;-64
2022/10/28 10:11:12;;;;;;;3.60;2.10;;;18.50;98.00;;;;;;5133621;27;21028;-65
2022/10/28 10:13:43;;;;;;;4.13;2.57;;;18.50;98.00;;;;;;5115414;27;20485;-66
2022/10/28 10:16:18;;;;;;;5.57;3.03;;;18.40;98.00;;;;;;5133635;27;20446;-65
2022/10/28 10:18:49;;;;;;;13.20;3.10;;;18.30;98.00;;;;;;5133672;27;20879;-65
2022/10/28 10:21:19;;;;;;;4.73;2.83;;;18.20;98.00;;;;;;5133532;27;20458;-65
2022/10/28 10:23:46;;;;;;;4.70;2.73;;;18.10;98.00;;;;;;5115936;27;20539;-66
2022/10/28 10:26:16;;;;;;;4.60;2.57;;;17.90;98.00;;;;;;5133535;27;20446;-65
2022/10/28 10:28:49;;;;;;;6.00;2.83;;;18.00;98.00;;;;;;5133840;27;20446;-65
2022/10/28 10:31:22;;;;;;;4.40;3.07;;;18.20;98.00;;;;;;5133422;27;20470;-65
2022/10/28 10:33:53;;;;;;;4.03;3.03;;;18.30;98.00;;;;;;5133190;27;21079;-64
2022/10/28 10:36:27;;;;;;;4.10;2.63;;;18.40;98.00;;;;;;5133254;27;20450;-65
2022/10/28 10:38:55;;;;;;;6.60;3.40;;;18.30;98.00;;;;;;5133470;27;20450;-65
2022/10/28 10:41:36;;;;;;;4.90;2.77;;;18.50;98.00;;;;;;5133020;27;20454;-64
2022/10/28 10:44:25;;;;;;;6.40;2.80;;;18.80;98.00;;;;;;5133250;27;21015;-65
2022/10/28 10:47:21;;;;;;;4.30;2.97;;;19.10;98.00;;;;;;5133137;27;20458;-64
2022/10/28 10:49:50;;;;;;;7.67;3.43;;;19.40;98.00;;;;;;5132872;27;20511;-65
2022/10/28 10:52:21;;;;;;;6.73;2.70;;;19.40;98.00;;;;;;5132712;27;20868;-65
2022/10/28 10:55:00;;;;;;;4.97;2.80;;;19.40;98.00;;;;;;5132848;27;20486;-64
2022/10/28 10:57:28;;;;;;;4.70;2.60;;;19.50;98.00;;;;;;5132732;27;20458;-64
2022/10/28 10:59:57;;;;;;;4.40;2.90;;;19.40;98.00;;;;;;5132656;27;20967;-65
2022/10/28 11:02:29;;;;;;;4.83;2.87;;;19.60;98.00;;;;;;5132709;27;20526;-64
2022/10/28 11:04:59;;;;;;;4.70;2.90;;;20.00;98.00;;;;;;5132824;27;20453;-65
2022/10/28 11:07:28;;;;;;;8.33;2.70;;;20.40;98.00;;;;;;5132742;27;20461;-65
2022/10/28 11:09:56;;;;;;;3.10;2.20;;;20.70;98.00;;;;;;5132328;27;20463;-65
2022/10/28 11:12:29;;;;;;;5.30;2.77;;;21.00;98.00;;;;;;5132559;27;20450;-65
2022/10/28 11:14:58;;;;;;;9.50;2.60;;;21.30;98.00;;;;;;5132635;27;20488;-65
2022/10/28 11:17:28;;;;;;;7.70;2.97;;;21.60;98.00;;;;;;5132300;27;20525;-65
2022/10/28 11:19:58;;;;;;;5.30;2.97;;;21.50;98.00;;;;;;5132806;27;20473;-65
2022/10/28 11:22:42;;;;;;;7.33;3.63;;;21.30;98.00;;;;;;5114880;27;20446;-64
2022/10/28 11:25:33;;;;;;;9.20;2.80;;;21.00;98.00;;;;;;5132662;27;20454;-64
2022/10/28 11:28:27;;;;;;;6.30;3.00;;;20.90;98.00;;;;;;5132455;27;20545;-65
2022/10/28 11:31:06;;;;;;;4.43;2.73;;;20.80;98.00;;;;;;5132526;27;20806;-65
2022/10/28 11:33:43;;;;;;;5.27;2.87;;;20.70;98.00;;;;;;5132170;27;21009;-65
2022/10/28 11:36:19;;;;;;;7.10;3.17;;;20.50;98.00;;;;;;5132255;28;20457;-65
2022/10/28 11:39:01;;;;;;;5.63;3.13;;;20.30;98.00;;;;;;5132408;27;20533;-65
2022/10/28 11:41:37;;;;;;;7.77;2.97;;;20.20;98.00;;;;;;5132078;28;20465;-64
2022/10/28 11:44:15;;;;;;;10.90;3.00;;;20.10;98.00;;;;;;5132295;28;20450;-65
2022/10/28 11:46:55;;;;;;;5.10;2.90;;;20.10;98.00;;;;;;5132312;28;20450;-65
2022/10/28 11:49:48;;;;;;;5.17;2.63;;;20.00;98.00;;;;;;5132301;28;20449;-65
2022/10/28 11:52:27;;;;;;;6.83;3.30;;;20.00;98.00;;;;;;5118706;28;20473;-65
2022/10/28 11:55:04;;;;;;;6.17;2.97;;;20.00;98.00;;;;;;5132163;28;20854;-65
2022/10/28 11:57:45;;;;;;;5.07;2.97;;;20.00;98.00;;;;;;5132101;28;20481;-65
2022/10/28 12:00:30;;;;;;;3.37;2.30;;;20.00;98.00;;;;;;5132095;28;20455;-65
2022/10/28 12:03:27;;;;;;;5.20;3.00;;;19.90;98.00;;;;;;5132374;28;20790;-65
2022/10/28 12:06:04;;;;;;;4.60;2.77;;;19.90;98.00;;;;;;5132173;28;20454;-65
2022/10/28 12:08:47;;;;;;;6.33;2.80;;;19.90;98.00;;;;;;5131993;28;20465;-65
2022/10/28 12:11:28;;;;;;;6.30;3.10;;;19.90;98.00;;;;;;5132081;28;20454;-65
2022/10/28 12:14:03;;;;;;;6.40;3.30;;;20.00;98.00;;;;;;5132268;28;20853;-65
2022/10/28 12:16:38;;;;;;;10.40;2.80;;;20.20;98.00;;;;;;5132086;28;20469;-65
2022/10/28 12:19:13;;;;;;;12.60;3.00;;;20.40;98.00;;;;;;5131917;28;21032;-64
2022/10/28 12:21:46;;;;;;;5.90;3.50;;;20.90;98.00;;;;;;5131936;28;20510;-65
2022/10/28 12:24:18;;;;;;;7.53;3.20;;;21.30;98.00;;;;;;5113583;28;20866;-65
2022/10/28 12:26:48;;;;;;;5.43;2.87;;;21.40;98.00;;;;;;5132116;28;20852;-65
2022/10/28 12:29:20;;;;;;;5.70;2.77;;;21.20;98.00;;;;;;5133068;27;20513;-65
2022/10/28 12:31:51;;;;;;;4.90;2.97;;;21.10;98.00;;;;;;5135638;27;20458;-65
2022/10/28 12:34:25;;;;;;;4.70;2.40;;;21.00;98.00;;;;;;5135602;27;20496;-65
2022/10/28 12:36:59;;;;;;;4.37;2.57;;;21.10;98.00;;;;;;5135594;27;20453;-65
2022/10/28 12:39:34;;;;;;;4.33;2.93;;;21.20;98.00;;;;;;5135756;27;20930;-65
2022/10/28 12:42:09;;;;;;;4.40;3.10;;;21.30;98.00;;;;;;5135705;27;20449;-65
2022/10/28 12:44:38;;;;;;;4.23;2.50;;;21.60;98.00;;;;;;5135879;27;20457;-65
2022/10/28 12:47:16;;;;;;;4.87;2.77;;;21.80;98.00;;;;;;5135343;27;20458;-65
2022/10/28 12:49:57;;;;;;;5.10;2.70;;;22.30;98.00;;;;;;5135555;27;20457;-65
2022/10/28 12:52:33;;;;;;;4.47;2.70;;;22.70;98.00;;;;;;5117937;27;20523;-65
2022/10/28 12:55:09;;;;;;;4.60;2.40;;;23.20;98.00;;;;;;5135222;27;20481;-65
2022/10/28 12:57:38;;;;;;;8.37;3.37;;;23.40;98.00;;;;;;5135465;27;20453;-65
2022/10/28 13:00:14;;;;;;;4.80;3.20;;;23.40;98.00;;;;;;5135111;27;20515;-66
2022/10/28 13:02:47;;;;;;;6.67;3.37;;;23.40;98.00;;;;;;5135252;27;20501;-65
2022/10/28 13:05:18;;;;;;;8.03;3.60;;;23.20;98.00;;;;;;5117611;27;20458;-63
2022/10/28 13:08:08;;;;;;;5.27;3.20;;;23.50;98.00;;;;;;5135493;27;20446;-64
2022/10/28 13:10:42;;;;;;;4.20;3.13;;;23.90;98.00;;;;;;5116828;27;20454;-63
2022/10/28 13:13:28;;;;;;;6.33;3.60;;;24.20;98.00;;;;;;5134961;27;20485;-64
2022/10/28 13:16:19;;;;;;;4.83;2.90;;;24.60;98.00;;;;;;5122813;27;20473;-63
2022/10/28 13:19:17;;;;;;;4.20;2.70;;;24.80;98.00;;;;;;5134983;27;20975;-63
2022/10/28 13:22:15;;;;;;;5.60;3.63;;;24.70;98.00;;;;;;5134662;27;20465;-64
2022/10/28 13:24:52;;;;;;;5.37;2.60;;;24.40;98.00;;;;;;5128675;27;20457;-64
2022/10/28 13:27:21;;;;;;;6.33;2.70;;;24.40;98.00;;;;;;5117035;27;21019;-64
2022/10/28 13:30:02;;;;;;;3.50;2.43;;;24.50;98.00;;;;;;5134645;27;20450;-63
2022/10/28 13:32:33;;;;;;;4.23;2.47;;;24.30;98.00;;;;;;5134495;27;20489;-63
2022/10/28 13:35:01;;;;;;;3.80;2.27;;;24.10;98.00;;;;;;5134439;27;20482;-63
2022/10/28 13:37:35;;;;;;;3.73;2.80;;;24.00;98.00;;;;;;5134705;27;20457;-63
2022/10/28 13:40:03;;;;;;;4.50;2.40;;;24.00;98.00;;;;;;5116119;27;20450;-63
2022/10/28 13:42:44;;;;;;;5.57;2.90;;;24.00;98.00;;;;;;5134483;27;20466;-65
2022/10/28 13:45:48;;;;;;;3.43;2.50;;;24.00;98.00;;;;;;5134239;27;20442;-65
2022/10/28 13:48:53;;;;;;;5.13;2.73;;;24.10;98.00;;;;;;5134294;27;20457;-66
2022/10/28 13:51:31;;;;;;;5.53;2.53;;;24.10;98.00;;;;;;5115700;27;20526;-65
2022/10/28 13:53:59;;;;;;;3.57;2.30;;;24.40;98.00;;;;;;5115786;27;20486;-65
2022/10/28 13:56:48;;;;;;;7.73;2.70;;;24.80;98.00;;;;;;5134261;27;20500;-65
2022/10/28 13:59:39;;;;;;;3.50;2.47;;;25.30;98.00;;;;;;5134201;27;20975;-65
2022/10/28 14:02:26;;;;;;;6.20;2.40;;;25.80;98.00;;;;;;5134311;27;20507;-65
2022/10/28 14:04:58;;;;;;;3.97;2.53;;;26.20;98.00;;;;;;5134074;27;21061;-65